Time,TemperatureF,DewpointF,PressureIn,WindDirection,WindDirectionDegrees,WindSpeedMPH,WindSpeedGustMPH,Humidity,HourlyPrecipIn,Conditions,Clouds,dailyrainin,SoftwareType,DateUTC
2013-01-19 00:04:00,36.8,31.5,29.81,WSW,250,2.0,11.0,81,0.00,,,0.00,Wunderground v.1.15,2013-01-19 06:04:00,
2013-01-19 00:10:00,36.5,31.2,29.81,West,269,1.0,1.0,81,0.00,,,0.00,Wunderground v.1.15,2013-01-19 06:10:00,
2013-01-19 00:16:00,36.3,31.0,29.81,WSW,257,0.0,11.0,81,0.00,,,0.00,Wunderground v.1.15,2013-01-19 06:16:00,
2013-01-19 00:22:00,36.0,31.0,29.81,WSW,253,0.0,11.0,82,0.00,,,0.00,Wunderground v.1.15,2013-01-19 06:22:00,
2013-01-19 00:28:00,35.8,30.8,29.81,WSW,253,0.0,11.0,82,0.00,,,0.00,Wunderground v.1.15,2013-01-19 06:28:00,
2013-01-19 00:34:00,35.4,30.8,29.81,WSW,253,0.0,11.0,83,0.00,,,0.00,Wunderground v.1.15,2013-01-19 06:34:00,
2013-01-19 00:40:00,34.9,30.6,29.81,SW,229,0.0,11.0,84,0.00,,,0.00,Wunderground v.1.15,2013-01-19 06:40:00,
2013-01-19 00:46:00,35.3,30.9,29.81,SW,222,1.0,11.0,84,0.00,,,0.00,Wunderground v.1.15,2013-01-19 06:46:00,
2013-01-19 00:52:00,35.2,30.6,29.81,SE,141,0.0,11.0,83,0.00,,,0.00,Wunderground v.1.15,2013-01-19 06:52:00,
2013-01-19 00:58:00,34.9,30.6,29.81,SW,232,0.0,11.0,84,0.00,,,0.00,Wunderground v.1.15,2013-01-19 06:58:00,
2013-01-19 01:04:00,34.5,30.2,29.81,SW,226,0.0,11.0,84,0.00,,,0.00,Wunderground v.1.15,2013-01-19 07:04:00,
2013-01-19 01:10:00,34.0,29.7,29.80,SW,226,0.0,11.0,84,0.00,,,0.00,Wunderground v.1.15,2013-01-19 07:10:00,
2013-01-19 01:16:00,33.2,29.5,29.80,SW,226,0.0,11.0,86,0.00,,,0.00,Wunderground v.1.15,2013-01-19 07:16:00,
2013-01-19 01:22:00,32.7,29.3,29.80,SW,226,0.0,11.0,87,0.00,,,0.00,Wunderground v.1.15,2013-01-19 07:22:00,
2013-01-19 01:28:00,32.4,29.2,29.81,SW,226,0.0,11.0,88,0.00,,,0.00,Wunderground v.1.15,2013-01-19 07:28:00,
2013-01-19 01:34:00,32.2,29.3,29.80,SW,226,0.0,11.0,89,0.00,,,0.00,Wunderground v.1.15,2013-01-19 07:34:00,
2013-01-19 01:40:00,32.3,29.4,29.80,SSE,152,0.0,11.0,89,0.00,,,0.00,Wunderground v.1.15,2013-01-19 07:40:00,
2013-01-19 01:46:00,33.1,29.9,29.80,SE,130,1.0,11.0,88,0.00,,,0.00,Wunderground v.1.15,2013-01-19 07:46:00,
2013-01-19 01:52:00,33.1,29.9,29.80,SE,133,1.0,11.0,88,0.00,,,0.00,Wunderground v.1.15,2013-01-19 07:52:00,
2013-01-19 01:58:00,32.9,29.7,29.80,SE,129,1.0,11.0,88,0.00,,,0.00,Wunderground v.1.15,2013-01-19 07:58:00,
2013-01-19 02:04:00,33.2,30.0,29.80,SE,146,0.0,11.0,88,0.00,,,0.00,Wunderground v.1.15,2013-01-19 08:04:00,
2013-01-19 02:10:00,33.5,30.3,29.80,SE,146,1.0,11.0,88,0.00,,,0.00,Wunderground v.1.15,2013-01-19 08:10:00,
2013-01-19 02:16:00,33.6,30.1,29.80,SE,127,1.0,11.0,87,0.00,,,0.00,Wunderground v.1.15,2013-01-19 08:16:00,
2013-01-19 02:22:00,33.7,30.5,29.80,SSE,149,0.0,11.0,88,0.00,,,0.00,Wunderground v.1.15,2013-01-19 08:22:00,
2013-01-19 02:28:00,34.0,30.5,29.80,SSE,149,1.0,11.0,87,0.00,,,0.00,Wunderground v.1.15,2013-01-19 08:28:00,
2013-01-19 02:34:00,34.3,30.5,29.79,SSE,155,1.0,11.0,86,0.00,,,0.00,Wunderground v.1.15,2013-01-19 08:34:00,
2013-01-19 02:40:00,34.5,30.7,29.79,SSE,149,1.0,1.0,86,0.00,,,0.00,Wunderground v.1.15,2013-01-19 08:40:00,
2013-01-19 02:46:00,34.4,30.6,29.79,SSE,158,1.0,11.0,86,0.00,,,0.00,Wunderground v.1.15,2013-01-19 08:46:00,
2013-01-19 02:52:00,34.4,30.6,29.79,SSE,154,1.0,11.0,86,0.00,,,0.00,Wunderground v.1.15,2013-01-19 08:52:00,
2013-01-19 02:58:00,34.4,30.6,29.78,SSE,149,1.0,11.0,86,0.00,,,0.00,Wunderground v.1.15,2013-01-19 08:58:00,
2013-01-19 03:04:00,34.4,30.6,29.78,SSE,152,1.0,11.0,86,0.00,,,0.00,Wunderground v.1.15,2013-01-19 09:04:00,
2013-01-19 03:10:00,34.3,30.5,29.78,SSE,158,1.0,1.0,86,0.00,,,0.00,Wunderground v.1.15,2013-01-19 09:10:00,
2013-01-19 03:16:00,34.2,30.4,29.78,SW,226,0.0,11.0,86,0.00,,,0.00,Wunderground v.1.15,2013-01-19 09:16:00,
2013-01-19 03:22:00,34.3,30.5,29.78,South,175,0.0,11.0,86,0.00,,,0.00,Wunderground v.1.15,2013-01-19 09:22:00,
2013-01-19 03:28:00,34.4,30.6,29.78,SE,146,0.0,11.0,86,0.00,,,0.00,Wunderground v.1.15,2013-01-19 09:28:00,
2013-01-19 03:34:00,34.7,30.9,29.78,SW,228,0.0,11.0,86,0.00,,,0.00,Wunderground v.1.15,2013-01-19 09:34:00,
2013-01-19 03:40:00,35.0,30.9,29.77,SW,236,1.0,11.0,85,0.00,,,0.00,Wunderground v.1.15,2013-01-19 09:40:00,
2013-01-19 03:46:00,35.2,31.1,29.77,SSW,203,1.0,11.0,85,0.00,,,0.00,Wunderground v.1.15,2013-01-19 09:46:00,
2013-01-19 03:52:00,35.4,31.0,29.77,SSW,194,1.0,11.0,84,0.00,,,0.00,Wunderground v.1.15,2013-01-19 09:52:00,
2013-01-19 03:58:00,35.2,30.9,29.76,SSE,153,1.0,11.0,84,0.00,,,0.00,Wunderground v.1.15,2013-01-19 09:58:00,
2013-01-19 04:04:00,34.8,30.8,29.76,South,186,1.0,11.0,85,0.00,,,0.00,Wunderground v.1.15,2013-01-19 10:04:00,
2013-01-19 04:10:00,34.8,30.8,29.75,WSW,247,0.0,11.0,85,0.00,,,0.00,Wunderground v.1.15,2013-01-19 10:10:00,
2013-01-19 04:16:00,34.9,30.8,29.75,SSE,155,0.0,11.0,85,0.00,,,0.00,Wunderground v.1.15,2013-01-19 10:16:00,
2013-01-19 04:22:00,34.8,30.8,29.75,WSW,257,0.0,11.0,85,0.00,,,0.00,Wunderground v.1.15,2013-01-19 10:22:00,
2013-01-19 04:28:00,34.7,30.9,29.75,SSW,198,0.0,11.0,86,0.00,,,0.00,Wunderground v.1.15,2013-01-19 10:28:00,
2013-01-19 04:34:00,34.5,30.7,29.75,South,179,0.0,11.0,86,0.00,,,0.00,Wunderground v.1.15,2013-01-19 10:34:00,
2013-01-19 04:40:00,34.7,30.9,29.74,SSE,158,1.0,11.0,86,0.00,,,0.00,Wunderground v.1.15,2013-01-19 10:40:00,
2013-01-19 04:46:00,34.9,31.1,29.75,SSW,201,1.0,11.0,86,0.00,,,0.00,Wunderground v.1.15,2013-01-19 10:46:00,
2013-01-19 04:52:00,35.1,31.3,29.74,South,191,1.0,11.0,86,0.00,,,0.00,Wunderground v.1.15,2013-01-19 10:52:00,
2013-01-19 05:00:00,35.2,31.4,29.74,SSE,155,1.0,11.0,86,0.00,,,0.00,Wunderground v.1.15,2013-01-19 11:00:00,
2013-01-19 05:06:00,35.3,31.5,29.74,SW,228,1.0,11.0,86,0.00,,,0.00,Wunderground v.1.15,2013-01-19 11:06:00,
2013-01-19 05:12:00,35.3,31.5,29.74,SSW,212,1.0,11.0,86,0.00,,,0.00,Wunderground v.1.15,2013-01-19 11:12:00,
2013-01-19 06:48:00,36.7,32.3,29.73,SW,229,4.0,11.0,84,0.00,,,0.00,Wunderground v.1.15,2013-01-19 12:48:00,
2013-01-19 06:50:00,36.8,32.1,29.73,WSW,242,5.0,11.0,83,0.00,,,0.00,Wunderground v.1.15,2013-01-19 12:50:00,
2013-01-19 06:56:00,36.8,32.1,29.74,SW,219,6.0,11.0,83,0.00,,,0.00,Wunderground v.1.15,2013-01-19 12:56:00,
2013-01-19 07:00:00,36.9,32.2,29.74,WSW,250,6.0,6.0,83,0.00,,,0.00,Wunderground v.1.15,2013-01-19 13:00:00,
2013-01-19 07:06:00,37.0,32.3,29.73,WSW,243,5.0,11.0,83,0.00,,,0.00,Wunderground v.1.15,2013-01-19 13:06:00,
2013-01-19 07:12:00,37.2,32.2,29.72,WSW,250,5.0,11.0,82,0.00,,,0.00,Wunderground v.1.15,2013-01-19 13:12:00,
2013-01-19 07:18:00,37.1,32.1,29.73,West,259,4.0,11.0,82,0.00,,,0.00,Wunderground v.1.15,2013-01-19 13:18:00,
2013-01-19 07:24:00,37.1,32.1,29.72,WSW,248,5.0,11.0,82,0.00,,,0.00,Wunderground v.1.15,2013-01-19 13:24:00,
2013-01-19 07:30:00,37.1,32.1,29.71,WSW,250,4.0,4.0,82,0.00,,,0.00,Wunderground v.1.15,2013-01-19 13:30:00,
2013-01-19 07:36:00,37.0,32.0,29.72,WSW,243,3.0,11.0,82,0.00,,,0.00,Wunderground v.1.15,2013-01-19 13:36:00,
2013-01-19 07:42:00,36.9,32.2,29.71,WNW,284,4.0,11.0,83,0.00,,,0.00,Wunderground v.1.15,2013-01-19 13:42:00,
2013-01-19 07:48:00,36.8,32.1,29.72,WSW,245,5.0,11.0,83,0.00,,,0.00,Wunderground v.1.15,2013-01-19 13:48:00,
2013-01-19 07:54:00,36.8,32.1,29.72,West,270,6.0,11.0,83,0.00,,,0.00,Wunderground v.1.15,2013-01-19 13:54:00,
2013-01-19 08:00:00,36.9,32.2,29.72,WSW,239,6.0,6.0,83,0.00,,,0.00,Wunderground v.1.15,2013-01-19 14:00:00,
2013-01-19 08:06:00,37.0,32.0,29.72,SW,224,5.0,11.0,82,0.00,,,0.00,Wunderground v.1.15,2013-01-19 14:06:00,
2013-01-19 08:12:00,37.1,32.1,29.72,West,277,5.0,11.0,82,0.00,,,0.00,Wunderground v.1.15,2013-01-19 14:12:00,
2013-01-19 08:18:00,37.0,32.0,29.74,WNW,302,3.0,11.0,82,0.00,,,0.00,Wunderground v.1.15,2013-01-19 14:18:00,
2013-01-19 08:24:00,37.4,32.1,29.74,WSW,253,3.0,11.0,81,0.00,,,0.00,Wunderground v.1.15,2013-01-19 14:24:00,
2013-01-19 08:30:00,37.6,32.0,29.73,SW,221,3.0,11.0,80,0.00,,,0.00,Wunderground v.1.15,2013-01-19 14:30:00,
2013-01-19 08:36:00,37.7,32.1,29.73,West,269,4.0,11.0,80,0.00,,,0.00,Wunderground v.1.15,2013-01-19 14:36:00,
2013-01-19 08:42:00,37.7,32.1,29.73,West,259,6.0,11.0,80,0.00,,,0.00,Wunderground v.1.15,2013-01-19 14:42:00,
2013-01-19 08:48:00,37.6,32.0,29.73,SW,233,6.0,11.0,80,0.00,,,0.00,Wunderground v.1.15,2013-01-19 14:48:00,
2013-01-19 08:54:00,37.6,32.3,29.73,WSW,257,6.0,11.0,81,0.00,,,0.00,Wunderground v.1.15,2013-01-19 14:54:00,
2013-01-19 09:00:00,37.6,32.3,29.73,West,277,6.0,6.0,81,0.00,,,0.00,Wunderground v.1.15,2013-01-19 15:00:00,
2013-01-19 09:06:00,37.7,32.4,29.75,West,267,5.0,11.0,81,0.00,,,0.00,Wunderground v.1.15,2013-01-19 15:06:00,
2013-01-19 09:12:00,37.7,32.4,29.75,WSW,257,4.0,11.0,81,0.00,,,0.00,Wunderground v.1.15,2013-01-19 15:12:00,
2013-01-19 09:18:00,37.7,32.4,29.75,SW,231,4.0,11.0,81,0.00,,,0.00,Wunderground v.1.15,2013-01-19 15:18:00,
2013-01-19 09:24:00,37.8,32.2,29.75,WNW,283,3.0,11.0,80,0.00,,,0.00,Wunderground v.1.15,2013-01-19 15:24:00,
2013-01-19 09:30:00,37.9,32.3,29.75,WNW,287,4.0,4.0,80,0.00,,,0.00,Wunderground v.1.15,2013-01-19 15:30:00,
2013-01-19 09:36:00,38.0,32.4,29.75,West,277,4.0,11.0,80,0.00,,,0.00,Wunderground v.1.15,2013-01-19 15:36:00,
2013-01-19 09:42:00,38.1,32.2,29.75,West,262,3.0,11.0,79,0.00,,,0.00,Wunderground v.1.15,2013-01-19 15:42:00,
2013-01-19 09:48:00,38.2,32.3,29.75,West,269,4.0,11.0,79,0.00,,,0.00,Wunderground v.1.15,2013-01-19 15:48:00,
2013-01-19 09:54:00,38.3,32.4,29.75,WNW,301,5.0,11.0,79,0.00,,,0.00,Wunderground v.1.15,2013-01-19 15:54:00,
2013-01-19 10:00:00,38.5,32.2,29.75,WSW,242,4.0,11.0,78,0.00,,,0.00,Wunderground v.1.15,2013-01-19 16:00:00,
2013-01-19 10:06:00,38.6,32.3,29.75,WSW,239,4.0,11.0,78,0.00,,,0.00,Wunderground v.1.15,2013-01-19 16:06:00,
2013-01-19 10:12:00,38.6,32.3,29.75,West,263,4.0,11.0,78,0.00,,,0.00,Wunderground v.1.15,2013-01-19 16:12:00,
2013-01-19 10:18:00,38.8,32.5,29.75,WSW,254,4.0,11.0,78,0.00,,,0.00,Wunderground v.1.15,2013-01-19 16:18:00,
2013-01-19 10:24:00,39.2,32.6,29.75,WNW,294,4.0,11.0,77,0.00,,,0.00,Wunderground v.1.15,2013-01-19 16:24:00,
2013-01-19 10:30:00,39.3,32.4,29.75,WSW,245,4.0,11.0,76,0.00,,,0.00,Wunderground v.1.15,2013-01-19 16:30:00,
2013-01-19 10:36:00,39.5,32.6,29.74,West,259,6.0,11.0,76,0.00,,,0.00,Wunderground v.1.15,2013-01-19 16:36:00,
2013-01-19 10:42:00,40.1,32.8,29.74,WNW,290,5.0,9.0,75,0.00,,,0.00,Wunderground v.1.15,2013-01-19 16:42:00,
2013-01-19 10:48:00,40.6,33.0,29.75,WSW,242,5.0,11.0,74,0.00,,,0.00,Wunderground v.1.15,2013-01-19 16:48:00,
2013-01-19 10:54:00,41.0,33.0,29.75,WNW,294,5.0,11.0,73,0.00,,,0.00,Wunderground v.1.15,2013-01-19 16:54:00,
2013-01-19 11:00:00,41.1,33.1,29.75,NW,325,5.0,11.0,73,0.00,,,0.00,Wunderground v.1.15,2013-01-19 17:00:00,
2013-01-19 11:06:00,41.6,33.2,29.75,WNW,287,5.0,11.0,72,0.00,,,0.00,Wunderground v.1.15,2013-01-19 17:06:00,
2013-01-19 11:12:00,42.1,33.4,29.74,WNW,300,5.0,11.0,71,0.00,,,0.00,Wunderground v.1.15,2013-01-19 17:12:00,
2013-01-19 11:18:00,42.6,33.5,29.74,WSW,241,4.0,11.0,70,0.00,,,0.00,Wunderground v.1.15,2013-01-19 17:18:00,
2013-01-19 11:24:00,43.0,33.9,29.74,WNW,287,4.0,11.0,70,0.00,,,0.00,Wunderground v.1.15,2013-01-19 17:24:00,
2013-01-19 11:30:00,43.5,33.6,29.74,WNW,292,4.0,11.0,68,0.00,,,0.00,Wunderground v.1.15,2013-01-19 17:30:00,
2013-01-19 11:38:00,44.3,34.0,29.74,WNW,295,5.0,11.0,67,0.00,,,0.00,Wunderground v.1.15,2013-01-19 17:38:00,
2013-01-19 11:44:00,44.5,33.8,29.74,North,350,4.0,11.0,66,0.00,,,0.00,Wunderground v.1.15,2013-01-19 17:44:00,
2013-01-19 11:50:00,44.8,33.7,29.73,WNW,288,5.0,5.0,65,0.00,,,0.00,Wunderground v.1.15,2013-01-19 17:50:00,
2013-01-19 11:55:00,45.2,34.5,29.73,WNW,295,5.0,11.0,66,0.00,,,0.00,Wunderground v.1.15,2013-01-19 17:55:00,
2013-01-19 12:04:00,45.7,34.6,29.72,NW,304,4.0,11.0,65,0.00,,,0.00,Wunderground v.1.15,2013-01-19 18:04:00,
2013-01-19 12:10:00,46.3,34.8,29.72,WNW,297,4.0,11.0,64,0.00,,,0.00,Wunderground v.1.15,2013-01-19 18:10:00,
2013-01-19 12:16:00,47.0,33.4,29.72,NW,305,4.0,11.0,59,0.00,,,0.00,Wunderground v.1.15,2013-01-19 18:16:00,
2013-01-19 12:22:00,47.0,33.0,29.72,NW,323,6.0,11.0,58,0.00,,,0.00,Wunderground v.1.15,2013-01-19 18:22:00,
2013-01-19 12:30:00,47.0,33.4,29.72,WNW,291,7.0,11.0,59,0.00,,,0.00,Wunderground v.1.15,2013-01-19 18:30:00,
2013-01-19 12:38:00,46.9,32.9,29.72,West,266,7.0,11.0,58,0.00,,,0.00,Wunderground v.1.15,2013-01-19 18:38:00,
2013-01-19 12:44:00,47.2,33.2,29.72,NW,308,7.0,11.0,58,0.00,,,0.00,Wunderground v.1.15,2013-01-19 18:44:00,
2013-01-19 12:50:00,47.5,33.9,29.73,WNW,300,6.0,11.0,59,0.00,,,0.00,Wunderground v.1.15,2013-01-19 18:50:00,
2013-01-19 12:56:00,47.5,33.9,29.73,WNW,295,6.0,11.0,59,0.00,,,0.00,Wunderground v.1.15,2013-01-19 18:56:00,
2013-01-19 13:02:00,47.6,33.5,29.73,NNW,334,6.0,11.0,58,0.00,,,0.00,Wunderground v.1.15,2013-01-19 19:02:00,
2013-01-19 13:08:00,47.9,33.8,29.73,SW,228,6.0,11.0,58,0.00,,,0.00,Wunderground v.1.15,2013-01-19 19:08:00,
2013-01-19 13:14:00,47.7,33.6,29.74,NNW,346,7.0,11.0,58,0.00,,,0.00,Wunderground v.1.15,2013-01-19 19:14:00,
2013-01-19 13:20:00,47.9,33.8,29.74,West,270,6.0,11.0,58,0.00,,,0.00,Wunderground v.1.15,2013-01-19 19:20:00,
2013-01-19 13:26:00,47.9,33.8,29.73,NW,318,5.0,11.0,58,0.00,,,0.00,Wunderground v.1.15,2013-01-19 19:26:00,
2013-01-19 13:32:00,48.2,34.1,29.73,West,281,4.0,11.0,58,0.00,,,0.00,Wunderground v.1.15,2013-01-19 19:32:00,
2013-01-19 13:38:00,48.4,34.3,29.73,WSW,256,4.0,11.0,58,0.00,,,0.00,Wunderground v.1.15,2013-01-19 19:38:00,
2013-01-19 13:44:00,48.5,34.4,29.73,WNW,285,4.0,11.0,58,0.00,,,0.00,Wunderground v.1.15,2013-01-19 19:44:00,
2013-01-19 13:50:00,48.6,34.5,29.73,WNW,293,4.0,11.0,58,0.00,,,0.00,Wunderground v.1.15,2013-01-19 19:50:00,
2013-01-19 13:56:00,48.8,34.7,29.73,NW,305,5.0,11.0,58,0.00,,,0.00,Wunderground v.1.15,2013-01-19 19:56:00,
2013-01-19 14:02:00,49.0,34.4,29.73,NW,323,5.0,11.0,57,0.00,,,0.00,Wunderground v.1.15,2013-01-19 20:02:00,
2013-01-19 14:08:00,49.3,34.3,29.73,NW,315,5.0,11.0,56,0.00,,,0.00,Wunderground v.1.15,2013-01-19 20:08:00,
2013-01-19 14:14:00,49.7,34.2,29.73,West,268,5.0,11.0,55,0.00,,,0.00,Wunderground v.1.15,2013-01-19 20:14:00,
2013-01-19 14:20:00,49.9,34.4,29.73,NW,309,4.0,11.0,55,0.00,,,0.00,Wunderground v.1.15,2013-01-19 20:20:00,
2013-01-19 14:26:00,49.8,33.8,29.74,NW,315,5.0,11.0,54,0.00,,,0.00,Wunderground v.1.15,2013-01-19 20:26:00,
2013-01-19 14:32:00,49.9,33.9,29.74,NW,318,6.0,8.0,54,0.00,,,0.00,Wunderground v.1.15,2013-01-19 20:32:00,
2013-01-19 14:38:00,49.7,33.7,29.75,NW,310,6.0,11.0,54,0.00,,,0.00,Wunderground v.1.15,2013-01-19 20:38:00,
2013-01-19 14:44:00,49.8,33.8,29.75,WNW,301,7.0,11.0,54,0.00,,,0.00,Wunderground v.1.15,2013-01-19 20:44:00,
2013-01-19 14:50:00,49.8,33.8,29.76,SW,235,6.0,12.0,54,0.00,,,0.00,Wunderground v.1.15,2013-01-19 20:50:00,
2013-01-19 14:56:00,49.7,34.2,29.76,WNW,284,6.0,12.0,55,0.00,,,0.00,Wunderground v.1.15,2013-01-19 20:56:00,
2013-01-19 15:02:00,49.4,34.3,29.76,WNW,298,6.0,11.0,56,0.00,,,0.00,Wunderground v.1.15,2013-01-19 21:02:00,
2013-01-19 15:08:00,48.9,34.3,29.77,West,266,7.0,14.0,57,0.00,,,0.00,Wunderground v.1.15,2013-01-19 21:08:00,
2013-01-19 15:14:00,48.7,35.0,29.77,West,281,7.0,11.0,59,0.00,,,0.00,Wunderground v.1.15,2013-01-19 21:14:00,
2013-01-19 15:20:00,48.6,34.5,29.77,NW,308,6.0,6.0,58,0.00,,,0.00,Wunderground v.1.15,2013-01-19 21:20:00,
2013-01-19 15:26:00,48.3,34.2,29.78,WNW,287,6.0,11.0,58,0.00,,,0.00,Wunderground v.1.15,2013-01-19 21:26:00,
2013-01-19 15:32:00,48.1,34.4,29.78,West,263,7.0,11.0,59,0.00,,,0.00,Wunderground v.1.15,2013-01-19 21:32:00,
2013-01-19 15:38:00,48.0,34.8,29.79,WSW,250,6.0,11.0,60,0.00,,,0.00,Wunderground v.1.15,2013-01-19 21:38:00,
2013-01-19 15:44:00,47.8,34.2,29.80,NW,314,6.0,11.0,59,0.00,,,0.00,Wunderground v.1.15,2013-01-19 21:44:00,
2013-01-19 15:50:00,47.4,33.4,29.80,West,270,9.0,9.0,58,0.00,,,0.00,Wunderground v.1.15,2013-01-19 21:50:00,
2013-01-19 15:56:00,46.9,33.3,29.81,West,280,8.0,13.0,59,0.00,,,0.00,Wunderground v.1.15,2013-01-19 21:56:00,
2013-01-19 16:02:00,46.5,33.8,29.81,WNW,298,7.0,12.0,61,0.00,,,0.00,Wunderground v.1.15,2013-01-19 22:02:00,
2013-01-19 16:08:00,46.2,33.1,29.82,West,259,8.0,12.0,60,0.00,,,0.00,Wunderground v.1.15,2013-01-19 22:08:00,
2013-01-19 16:14:00,45.9,32.4,29.82,WNW,289,9.0,15.0,59,0.00,,,0.00,Wunderground v.1.15,2013-01-19 22:14:00,
2013-01-19 16:20:00,45.7,32.2,29.82,NW,309,9.0,9.0,59,0.00,,,0.00,Wunderground v.1.15,2013-01-19 22:20:00,
2013-01-19 16:26:00,45.5,32.4,29.82,NW,304,7.0,11.0,60,0.00,,,0.00,Wunderground v.1.15,2013-01-19 22:26:00,
2013-01-19 16:32:00,45.3,32.6,29.82,WNW,300,5.0,11.0,61,0.00,,,0.00,Wunderground v.1.15,2013-01-19 22:32:00,
2013-01-19 16:40:00,44.8,32.6,29.82,WNW,290,5.0,5.0,62,0.00,,,0.00,Wunderground v.1.15,2013-01-19 22:40:00,
2013-01-19 16:46:00,44.1,32.3,29.82,West,266,4.0,11.0,63,0.00,,,0.00,Wunderground v.1.15,2013-01-19 22:46:00,
2013-01-19 16:52:00,43.6,32.2,29.83,NW,319,4.0,11.0,64,0.00,,,0.00,Wunderground v.1.15,2013-01-19 22:52:00,
2013-01-19 16:58:00,43.1,32.5,29.83,WNW,293,4.0,11.0,66,0.00,,,0.00,Wunderground v.1.15,2013-01-19 22:58:00,
2013-01-19 17:04:00,42.7,32.1,29.84,NW,311,4.0,6.0,66,0.00,,,0.00,Wunderground v.1.15,2013-01-19 23:04:00,
2013-01-19 17:10:00,42.4,32.2,29.85,WNW,297,5.0,11.0,67,0.00,,,0.00,Wunderground v.1.15,2013-01-19 23:10:00,
2013-01-19 17:16:00,42.3,32.1,29.85,NNW,328,7.0,11.0,67,0.00,,,0.00,Wunderground v.1.15,2013-01-19 23:16:00,
2013-01-19 17:24:00,41.9,31.7,29.85,NW,309,6.0,11.0,67,0.00,,,0.00,Wunderground v.1.15,2013-01-19 23:24:00,
2013-01-19 17:32:00,41.4,31.6,29.86,SW,222,6.0,12.0,68,0.00,,,0.00,Wunderground v.1.15,2013-01-19 23:32:00,
2013-01-19 17:38:00,41.3,31.2,29.87,NW,314,7.0,12.0,67,0.00,,,0.00,Wunderground v.1.15,2013-01-19 23:38:00,
2013-01-19 17:43:00,41.2,31.1,29.87,West,274,8.0,11.0,67,0.00,,,0.00,Wunderground v.1.15,2013-01-19 23:43:00,
2013-01-19 17:56:00,41.1,31.0,29.87,NW,326,8.0,11.0,67,0.00,,,0.00,Wunderground v.1.15,2013-01-19 23:56:00,
2013-01-19 18:02:00,41.0,30.9,29.88,West,263,8.0,17.0,67,0.00,,,0.00,Wunderground v.1.15,2013-01-20 00:02:00,
2013-01-19 18:08:00,40.7,31.0,29.88,West,263,8.0,17.0,68,0.00,,,0.00,Wunderground v.1.15,2013-01-20 00:08:00,
2013-01-19 18:14:00,39.9,30.9,29.90,WNW,300,7.0,15.0,70,0.00,,,0.00,Wunderground v.1.15,2013-01-20 00:14:00,
2013-01-19 18:20:00,38.3,30.1,29.90,West,270,9.0,9.0,72,0.00,,,0.00,Wunderground v.1.15,2013-01-20 00:20:00,
2013-01-19 18:26:00,37.1,29.2,29.91,West,270,9.0,13.0,73,0.00,,,0.00,Wunderground v.1.15,2013-01-20 00:26:00,
2013-01-19 18:32:00,36.0,28.5,29.92,WNW,293,8.0,14.0,74,0.00,,,0.00,Wunderground v.1.15,2013-01-20 00:32:00,
2013-01-19 18:38:00,34.9,27.8,29.92,NW,316,7.0,14.0,75,0.00,,,0.00,Wunderground v.1.15,2013-01-20 00:38:00,
2013-01-19 18:44:00,34.0,27.2,29.93,WNW,287,7.0,11.0,76,0.00,,,0.00,Wunderground v.1.15,2013-01-20 00:44:00,
2013-01-19 18:50:00,33.5,27.1,29.93,NW,307,6.0,11.0,77,0.00,,,0.00,Wunderground v.1.15,2013-01-20 00:50:00,
2013-01-19 18:56:00,33.1,26.4,29.94,WNW,302,7.0,11.0,76,0.00,,,0.00,Wunderground v.1.15,2013-01-20 00:56:00,
2013-01-19 19:02:00,32.3,24.9,29.95,NW,307,7.0,13.0,74,0.00,,,0.00,Wunderground v.1.15,2013-01-20 01:02:00,
2013-01-19 19:08:00,30.9,23.6,29.96,WNW,300,9.0,17.0,74,0.00,,,0.00,Wunderground v.1.15,2013-01-20 01:08:00,
2013-01-19 19:14:00,30.1,22.8,29.96,SSW,208,9.0,11.0,74,0.00,,,0.00,Wunderground v.1.15,2013-01-20 01:14:00,
2013-01-19 19:20:00,29.6,22.3,29.97,NNW,328,9.0,11.0,74,0.00,,,0.00,Wunderground v.1.15,2013-01-20 01:20:00,
2013-01-19 19:26:00,29.2,21.6,29.97,NW,321,8.0,11.0,73,0.00,,,0.00,Wunderground v.1.15,2013-01-20 01:26:00,
2013-01-19 19:32:00,28.8,20.9,29.98,WSW,246,8.0,11.0,72,0.00,,,0.00,Wunderground v.1.15,2013-01-20 01:32:00,
2013-01-19 19:38:00,27.9,18.4,29.99,NW,323,10.0,11.0,67,0.00,,,0.00,Wunderground v.1.15,2013-01-20 01:38:00,
2013-01-19 19:44:00,27.0,16.4,30.00,NNW,328,10.0,14.0,64,0.00,,,0.00,Wunderground v.1.15,2013-01-20 01:44:00,
2013-01-19 19:50:00,25.9,13.1,30.00,NW,314,10.0,14.0,58,0.00,,,0.00,Wunderground v.1.15,2013-01-20 01:50:00,
2013-01-19 19:56:00,24.6,10.7,30.00,WNW,295,12.0,14.0,55,0.00,,,0.00,Wunderground v.1.15,2013-01-20 01:56:00,
2013-01-19 20:02:00,24.0,11.3,30.01,NW,309,11.0,12.0,58,0.00,,,0.00,Wunderground v.1.15,2013-01-20 02:02:00,
2013-01-19 20:08:00,23.6,10.2,30.01,NW,315,10.0,15.0,56,0.00,,,0.00,Wunderground v.1.15,2013-01-20 02:08:00,
2013-01-19 20:14:00,23.1,9.7,30.02,WNW,298,12.0,18.0,56,0.00,,,0.00,Wunderground v.1.15,2013-01-20 02:14:00,
2013-01-19 20:20:00,22.4,10.2,30.02,NNW,340,11.0,15.0,59,0.00,,,0.00,Wunderground v.1.15,2013-01-20 02:20:00,
2013-01-19 20:26:00,21.9,10.9,30.03,NW,316,10.0,15.0,62,0.00,,,0.00,Wunderground v.1.15,2013-01-20 02:26:00,
2013-01-19 20:32:00,21.6,11.3,30.03,NNW,346,10.0,13.0,64,0.00,,,0.00,Wunderground v.1.15,2013-01-20 02:32:00,
2013-01-19 20:38:00,21.2,10.2,30.04,NNW,333,10.0,13.0,62,0.00,,,0.00,Wunderground v.1.15,2013-01-20 02:38:00,
2013-01-19 20:44:00,20.5,9.5,30.04,NNW,343,10.0,11.0,62,0.00,,,0.00,Wunderground v.1.15,2013-01-20 02:44:00,
2013-01-19 20:51:00,20.0,9.8,30.04,WNW,302,9.0,10.0,64,0.00,,,0.00,Wunderground v.1.15,2013-01-20 02:51:00,
2013-01-19 20:58:00,19.6,9.7,30.05,NW,322,8.0,10.0,65,0.00,,,0.00,Wunderground v.1.15,2013-01-20 02:58:00,
2013-01-19 21:04:00,19.4,8.8,30.05,NW,304,9.0,12.0,63,0.00,,,0.00,Wunderground v.1.15,2013-01-20 03:04:00,
2013-01-19 21:10:00,19.2,8.3,30.05,NW,315,9.0,17.0,62,0.00,,,0.00,Wunderground v.1.15,2013-01-20 03:10:00,
2013-01-19 21:16:00,19.0,7.4,30.06,NW,312,9.0,17.0,60,0.00,,,0.00,Wunderground v.1.15,2013-01-20 03:16:00,
2013-01-19 21:22:00,18.8,7.9,30.06,NW,314,9.0,15.0,62,0.00,,,0.00,Wunderground v.1.15,2013-01-20 03:22:00,
2013-01-19 21:28:00,18.4,7.2,30.07,WNW,293,7.0,15.0,61,0.00,,,0.00,Wunderground v.1.15,2013-01-20 03:28:00,
2013-01-19 21:34:00,17.8,7.3,30.07,NW,309,9.0,14.0,63,0.00,,,0.00,Wunderground v.1.15,2013-01-20 03:34:00,
2013-01-19 21:40:00,17.6,7.5,30.08,NW,317,8.0,8.0,64,0.00,,,0.00,Wunderground v.1.15,2013-01-20 03:40:00,
2013-01-19 21:46:00,17.3,7.5,30.08,NNW,335,7.0,12.0,65,0.00,,,0.00,Wunderground v.1.15,2013-01-20 03:46:00,
2013-01-19 21:52:00,17.2,7.8,30.09,West,266,7.0,11.0,66,0.00,,,0.00,Wunderground v.1.15,2013-01-20 03:52:00,
2013-01-19 21:58:00,17.0,7.9,30.10,WNW,293,8.0,11.0,67,0.00,,,0.00,Wunderground v.1.15,2013-01-20 03:58:00,
2013-01-19 22:04:00,16.9,7.5,30.10,West,273,7.0,14.0,66,0.00,,,0.00,Wunderground v.1.15,2013-01-20 04:04:00,
2013-01-19 22:10:00,16.7,7.3,30.10,NNW,330,7.0,9.0,66,0.00,,,0.00,Wunderground v.1.15,2013-01-20 04:10:00,
2013-01-19 22:16:00,16.5,7.1,30.11,West,280,8.0,12.0,66,0.00,,,0.00,Wunderground v.1.15,2013-01-20 04:16:00,
2013-01-19 22:24:00,16.3,7.3,30.12,North,350,7.0,11.0,67,0.00,,,0.00,Wunderground v.1.15,2013-01-20 04:24:00,
2013-01-19 22:30:00,16.0,7.3,30.12,NW,314,7.0,7.0,68,0.00,,,0.00,Wunderground v.1.15,2013-01-20 04:30:00,
2013-01-19 22:36:00,15.5,6.5,30.13,NW,314,8.0,12.0,67,0.00,,,0.00,Wunderground v.1.15,2013-01-20 04:36:00,
2013-01-19 22:42:00,15.2,6.2,30.13,WNW,291,8.0,8.0,67,0.00,,,0.00,Wunderground v.1.15,2013-01-20 04:42:00,
2013-01-19 22:48:00,14.9,6.2,30.13,West,259,8.0,9.0,68,0.00,,,0.00,Wunderground v.1.15,2013-01-20 04:48:00,
2013-01-19 22:54:00,14.5,5.9,30.14,WNW,287,7.0,7.0,68,0.00,,,0.00,Wunderground v.1.15,2013-01-20 04:54:00,
2013-01-19 23:00:00,14.3,5.7,30.14,NW,319,8.0,10.0,68,0.00,,,0.00,Wunderground v.1.15,2013-01-20 05:00:00,
2013-01-19 23:01:00,14.3,5.7,30.14,North,5,8.0,21.0,68,0.00,,,0.00,Wunderground v.1.15,2013-01-20 05:01:00,
2013-01-19 23:08:00,14.1,5.5,30.14,WNW,297,7.0,21.0,68,0.00,,,0.00,Wunderground v.1.15,2013-01-20 05:08:00,
2013-01-19 23:14:00,13.8,5.5,30.14,NW,318,7.0,21.0,69,0.00,,,0.00,Wunderground v.1.15,2013-01-20 05:14:00,
2013-01-19 23:16:00,13.7,5.4,30.14,NW,316,7.0,21.0,69,0.00,,,0.00,Wunderground v.1.15,2013-01-20 05:16:00,
2013-01-19 23:22:00,13.6,5.3,30.15,WNW,284,7.0,21.0,69,0.00,,,0.00,Wunderground v.1.15,2013-01-20 05:22:00,
2013-01-19 23:28:00,13.4,4.8,30.14,NW,312,7.0,21.0,68,0.00,,,0.00,Wunderground v.1.15,2013-01-20 05:28:00,
2013-01-19 23:34:00,13.3,4.7,30.15,NW,321,7.0,21.0,68,0.00,,,0.00,Wunderground v.1.15,2013-01-20 05:34:00,
2013-01-19 23:40:00,13.2,4.9,30.15,NW,307,5.0,5.0,69,0.00,,,0.00,Wunderground v.1.15,2013-01-20 05:40:00,
2013-01-19 23:45:00,13.0,5.0,30.15,WNW,298,5.0,21.0,70,0.00,,,0.00,Wunderground v.1.15,2013-01-20 05:45:00,
2013-01-19 23:52:00,12.8,4.9,30.15,NW,315,5.0,11.0,70,0.00,,,0.00,Wunderground v.1.15,2013-01-20 05:52:00,
2013-01-19 23:58:00,12.6,4.3,30.15,WNW,298,6.0,21.0,69,0.00,,,0.00,Wunderground v.1.15,2013-01-20 05:58:00,